createdAt,value
2022-08-02T00:00:20.712Z,79.40
2022-08-02T00:02:49.349Z,79.80
2022-08-02T00:05:18.416Z,80.10
2022-08-02T00:07:46.244Z,80.20
2022-08-02T00:10:14.108Z,80.10
2022-08-02T00:12:41.818Z,80.10
2022-08-02T00:15:10.863Z,80.20
2022-08-02T00:17:44.142Z,80.20
2022-08-02T00:20:12.529Z,80.50
2022-08-02T00:22:41.891Z,80.60
2022-08-02T00:25:09.901Z,80.50
2022-08-02T00:27:37.617Z,80.60
2022-08-02T00:30:05.886Z,80.70
2022-08-02T00:32:33.715Z,80.80
2022-08-02T00:35:01.435Z,80.70
2022-08-02T00:37:30.155Z,80.80
2022-08-02T00:39:59.199Z,80.80
2022-08-02T00:42:26.979Z,80.80
2022-08-02T00:44:54.945Z,80.80
2022-08-02T00:47:22.676Z,80.50
2022-08-02T00:49:50.426Z,80.50
2022-08-02T00:52:18.153Z,80.70
2022-08-02T00:54:45.954Z,80.70
2022-08-02T00:57:18.465Z,80.80
2022-08-02T00:59:47.304Z,80.80
2022-08-02T01:02:15.435Z,81.30
2022-08-02T01:04:43.619Z,81.60
2022-08-02T01:07:12.761Z,82.70
2022-08-02T01:09:42.787Z,82.70
2022-08-02T01:12:11.459Z,82.80
2022-08-02T01:14:42.725Z,82.90
2022-08-02T01:17:17.186Z,83.10
2022-08-02T01:19:51.647Z,83.20
2022-08-02T01:23:00.468Z,83.30
2022-08-02T01:25:39.442Z,83.30
2022-08-02T01:28:27.744Z,83.20
2022-08-02T01:31:02.076Z,83.00
2022-08-02T01:33:36.594Z,82.90
2022-08-02T01:36:08.130Z,83.10
2022-08-02T01:38:40.776Z,82.90
2022-08-02T01:41:10.516Z,82.60
2022-08-02T01:43:43.079Z,82.20
2022-08-02T01:46:13.654Z,82.10
2022-08-02T01:48:42.754Z,82.20
2022-08-02T01:51:14.246Z,82.60
2022-08-02T01:53:44.700Z,82.60
2022-08-02T01:56:13.566Z,82.90
2022-08-02T01:58:44.663Z,83.50
2022-08-02T02:01:15.092Z,83.30
2022-08-02T02:03:49.458Z,83.50
2022-08-02T02:06:18.976Z,83.30
2022-08-02T02:08:50.071Z,83.50
2022-08-02T02:12:09.430Z,83.40
2022-08-02T02:14:10.119Z,83.30
2022-08-02T02:16:39.056Z,83.30
2022-08-02T02:19:08.530Z,83.30
2022-08-02T02:21:36.422Z,83.20
2022-08-02T02:24:05.876Z,83.30
2022-08-02T02:26:51.947Z,83.30
2022-08-02T02:29:22.732Z,83.50
2022-08-02T02:31:53.646Z,83.70
2022-08-02T02:34:28.565Z,83.70
2022-08-02T02:37:00.308Z,83.80
2022-08-02T02:39:29.439Z,83.80
2022-08-02T02:42:02.990Z,84.60
2022-08-02T02:44:33.196Z,84.60
2022-08-02T02:47:01.629Z,84.40
2022-08-02T02:49:35.095Z,84.30
2022-08-02T02:52:04.439Z,84.60
2022-08-02T02:54:35.341Z,84.60
2022-08-02T02:57:06.394Z,84.80
2022-08-02T02:59:36.504Z,85.10
2022-08-02T03:02:17.980Z,85.50
2022-08-02T03:04:57.234Z,85.80
2022-08-02T03:07:26.348Z,85.60
2022-08-02T03:09:55.163Z,85.60
2022-08-02T03:12:30.605Z,85.20
2022-08-02T03:15:03.730Z,85.30
2022-08-02T03:17:40.124Z,85.30
2022-08-02T03:20:11.721Z,85.60
2022-08-02T03:22:39.656Z,85.90
2022-08-02T03:25:08.847Z,85.90
2022-08-02T03:27:36.756Z,85.90
2022-08-02T03:30:08.971Z,86.20
2022-08-02T03:32:38.389Z,86.10
2022-08-02T03:35:10.027Z,86.20
2022-08-02T03:37:38.695Z,86.20
2022-08-02T03:40:09.300Z,85.90
2022-08-02T03:42:37.272Z,85.90
2022-08-02T03:45:09.829Z,86.10
2022-08-02T03:47:39.579Z,86.40
2022-08-02T03:50:09.236Z,86.40
2022-08-02T03:52:37.794Z,86.70
2022-08-02T03:55:06.514Z,86.90
2022-08-02T03:57:34.567Z,87.20
2022-08-02T04:00:02.336Z,87.10
2022-08-02T04:03:11.087Z,87.00
2022-08-02T04:06:00.996Z,86.80
2022-08-02T04:08:35.035Z,87.30
2022-08-02T04:11:18.475Z,87.40
2022-08-02T04:13:46.555Z,87.50
2022-08-02T04:16:21.592Z,87.90
2022-08-02T04:18:56.104Z,88.00
2022-08-02T04:21:49.849Z,87.90
2022-08-02T04:24:18.713Z,87.90
2022-08-02T04:26:48.982Z,87.80
2022-08-02T04:29:19.360Z,87.80
2022-08-02T04:31:47.380Z,87.70
2022-08-02T04:34:16.674Z,87.50
2022-08-02T04:36:44.579Z,87.40
2022-08-02T04:39:12.342Z,87.20
2022-08-02T04:41:44.522Z,87.30
2022-08-02T04:44:12.552Z,87.00
2022-08-02T04:46:41.145Z,86.90
2022-08-02T04:49:09.149Z,86.70
2022-08-02T04:51:38.962Z,86.30
2022-08-02T04:54:09.897Z,86.30
2022-08-02T04:56:38.366Z,86.40
2022-08-02T04:59:07.052Z,86.10
2022-08-02T05:01:36.111Z,86.50
2022-08-02T05:04:04.615Z,86.50
2022-08-02T05:06:32.773Z,86.40
2022-08-02T05:09:03.025Z,86.10
2022-08-02T05:11:36.263Z,86.00
2022-08-02T05:14:05.146Z,85.60
2022-08-02T05:16:32.914Z,85.30
2022-08-02T05:19:00.942Z,84.70
2022-08-02T05:21:32.309Z,84.00
2022-08-02T05:24:00.143Z,83.50
2022-08-02T05:26:29.284Z,82.40
2022-08-02T05:28:57.040Z,81.70
2022-08-02T05:31:24.804Z,81.60
2022-08-02T05:33:52.730Z,82.50
2022-08-02T05:36:21.694Z,81.70
2022-08-02T05:38:50.692Z,82.20
2022-08-02T05:41:18.985Z,81.00
2022-08-02T05:43:48.722Z,79.70
2022-08-02T05:46:16.467Z,79.10
2022-08-02T05:48:44.787Z,78.60
2022-08-02T05:51:19.451Z,78.80
2022-08-02T05:53:51.522Z,78.30
2022-08-02T05:56:25.595Z,77.90
2022-08-02T05:59:01.634Z,76.70
2022-08-02T06:01:33.979Z,76.00
2022-08-02T06:04:02.923Z,76.00
2022-08-02T06:06:33.051Z,75.00
2022-08-02T06:09:03.740Z,73.60
2022-08-02T06:11:37.454Z,73.40
2022-08-02T06:14:08.102Z,72.30
2022-08-02T06:16:41.204Z,71.20
2022-08-02T06:19:12.543Z,69.50
2022-08-02T06:22:34.075Z,66.10
2022-08-02T06:24:32.038Z,63.90
2022-08-02T06:27:01.566Z,61.60
2022-08-02T06:29:38.866Z,58.90
2022-08-02T06:32:08.706Z,56.90
2022-08-02T06:34:38.256Z,55.30
2022-08-02T06:37:14.777Z,54.00
2022-08-02T06:39:48.493Z,53.20
2022-08-02T06:42:27.001Z,52.30
2022-08-02T06:44:58.610Z,52.00
2022-08-02T06:47:27.223Z,51.10
2022-08-02T06:49:56.713Z,51.40
2022-08-02T06:52:28.708Z,50.40
2022-08-02T06:54:58.113Z,50.60
2022-08-02T06:57:25.884Z,49.50
2022-08-02T06:59:53.799Z,49.40
2022-08-02T07:02:23.315Z,49.00
2022-08-02T07:04:51.386Z,49.30
2022-08-02T07:07:19.230Z,48.70
2022-08-02T07:09:56.666Z,48.20
2022-08-02T07:12:32.496Z,48.10
2022-08-02T07:15:01.244Z,47.10
2022-08-02T07:17:31.226Z,46.90
2022-08-02T07:19:59.761Z,45.60
2022-08-02T07:22:28.187Z,45.60
2022-08-02T07:24:56.724Z,45.20
2022-08-02T07:27:25.152Z,44.30
2022-08-02T07:29:55.187Z,44.20
2022-08-02T07:32:25.895Z,44.20
2022-08-02T07:34:58.883Z,43.60
2022-08-02T07:37:53.551Z,42.70
2022-08-02T07:40:20.020Z,41.80
2022-08-02T07:42:49.686Z,41.30
2022-08-02T07:45:17.695Z,40.70
2022-08-02T07:47:46.134Z,40.60
2022-08-02T07:50:19.878Z,41.10
2022-08-02T07:52:57.162Z,41.10
2022-08-02T07:55:39.917Z,40.80
2022-08-02T07:58:12.977Z,40.30
2022-08-02T08:00:44.109Z,41.20
2022-08-02T08:03:12.619Z,40.00
2022-08-02T08:05:42.022Z,40.10
2022-08-02T08:08:15.227Z,39.10
2022-08-02T08:10:48.231Z,38.80
2022-08-02T08:13:16.880Z,38.60
2022-08-02T08:15:51.749Z,38.20
2022-08-02T08:18:25.351Z,37.70
2022-08-02T08:20:54.573Z,38.10
2022-08-02T08:23:22.343Z,38.70
2022-08-02T08:25:50.221Z,38.30
2022-08-02T08:28:20.589Z,38.50
2022-08-02T08:30:48.541Z,38.50
2022-08-02T08:33:16.613Z,37.80
2022-08-02T08:35:45.720Z,38.60
2022-08-02T08:38:15.634Z,38.50
2022-08-02T08:40:44.912Z,39.20
2022-08-02T08:43:14.376Z,37.30
2022-08-02T08:45:44.266Z,37.30
2022-08-02T08:48:30.151Z,38.40
2022-08-02T08:51:08.285Z,37.80
2022-08-02T08:53:44.344Z,38.00
2022-08-02T08:56:16.261Z,37.50
2022-08-02T08:58:45.661Z,38.00
2022-08-02T09:01:14.963Z,38.60
2022-08-02T09:03:43.150Z,39.50
2022-08-02T09:06:11.040Z,39.20
2022-08-02T09:08:40.165Z,37.60
2022-08-02T09:11:15.582Z,38.30
2022-08-02T09:13:52.125Z,37.10
2022-08-02T09:16:30.081Z,37.40
2022-08-02T09:18:58.327Z,37.00
2022-08-02T09:21:35.871Z,37.90
2022-08-02T09:24:17.618Z,36.70
2022-08-02T09:26:51.151Z,36.30
2022-08-02T09:29:22.489Z,36.30
2022-08-02T09:31:51.398Z,36.00
2022-08-02T09:34:19.839Z,36.40
2022-08-02T09:36:48.547Z,35.20
2022-08-02T09:39:26.296Z,35.30
2022-08-02T09:42:08.178Z,35.50
2022-08-02T09:44:36.684Z,35.90
2022-08-02T09:47:16.375Z,36.00
2022-08-02T09:49:52.381Z,35.40
2022-08-02T09:52:43.078Z,35.70
2022-08-02T09:55:14.159Z,36.10
2022-08-02T09:57:42.093Z,36.70
2022-08-02T10:00:14.272Z,36.00
2022-08-02T10:03:06.476Z,35.40
2022-08-02T10:05:54.079Z,35.80
2022-08-02T10:08:23.659Z,35.60
2022-08-02T10:11:00.226Z,35.20
2022-08-02T10:13:30.390Z,35.00
2022-08-02T10:15:58.456Z,35.10
2022-08-02T10:18:38.799Z,35.60
2022-08-02T10:21:15.141Z,36.40
2022-08-02T10:23:46.380Z,36.40
2022-08-02T10:26:18.145Z,35.80
2022-08-02T10:28:49.205Z,35.20
2022-08-02T10:31:21.493Z,35.60
2022-08-02T10:33:52.806Z,35.70
2022-08-02T10:36:23.436Z,38.00
2022-08-02T10:38:51.642Z,37.90
2022-08-02T10:41:43.478Z,37.00
2022-08-02T10:44:24.054Z,36.50
2022-08-02T10:47:23.867Z,35.50
2022-08-02T10:49:55.663Z,35.80
2022-08-02T10:52:24.695Z,35.50
2022-08-02T10:54:58.341Z,36.10
2022-08-02T10:57:29.745Z,35.90
2022-08-02T11:00:03.597Z,36.00
2022-08-02T11:02:38.932Z,36.10
2022-08-02T11:05:09.869Z,36.00
2022-08-02T11:07:40.334Z,34.70
2022-08-02T11:10:28.880Z,35.10
2022-08-02T11:13:04.704Z,33.90
2022-08-02T11:15:49.214Z,33.80
2022-08-02T11:18:21.996Z,33.80
2022-08-02T11:21:23.079Z,34.90
2022-08-02T11:23:50.958Z,34.40
2022-08-02T11:26:48.469Z,34.20
2022-08-02T11:29:18.337Z,34.10
2022-08-02T11:31:46.901Z,33.20
2022-08-02T11:34:36.823Z,33.00
2022-08-02T11:37:04.866Z,32.70
2022-08-02T11:39:32.617Z,33.00
2022-08-02T11:42:01.667Z,32.50
2022-08-02T11:44:39.988Z,33.20
2022-08-02T11:47:08.552Z,33.00
2022-08-02T11:49:38.361Z,33.60
2022-08-02T11:52:11.793Z,32.60
2022-08-02T11:54:41.883Z,33.10
2022-08-02T11:57:16.836Z,33.70
2022-08-02T11:59:50.575Z,34.30
2022-08-02T12:02:20.826Z,33.20
2022-08-02T12:04:58.831Z,33.40
2022-08-02T12:07:34.571Z,33.40
2022-08-02T12:10:07.635Z,34.10
2022-08-02T12:12:47.376Z,33.70
2022-08-02T12:15:31.506Z,34.60
2022-08-02T12:18:17.846Z,34.30
2022-08-02T12:20:46.960Z,34.10
2022-08-02T12:23:15.044Z,34.50
2022-08-02T12:25:42.986Z,36.50
2022-08-02T12:28:22.094Z,36.40
2022-08-02T12:30:57.931Z,36.60
2022-08-02T12:33:28.581Z,36.90
2022-08-02T12:35:56.884Z,37.40
2022-08-02T12:38:24.752Z,37.20
2022-08-02T12:40:52.484Z,37.50
2022-08-02T12:43:22.207Z,38.10
2022-08-02T12:45:52.915Z,37.90
2022-08-02T12:48:38.359Z,39.20
2022-08-02T12:51:23.117Z,40.60
2022-08-02T12:53:59.753Z,41.80
2022-08-02T12:56:30.435Z,43.30
2022-08-02T12:58:59.014Z,43.50
2022-08-02T13:01:28.697Z,44.20
2022-08-02T13:04:11.519Z,44.00
2022-08-02T13:06:45.564Z,45.30
2022-08-02T13:09:16.271Z,45.20
2022-08-02T13:11:44.779Z,45.40
2022-08-02T13:14:13.111Z,45.20
2022-08-02T13:16:43.283Z,45.20
2022-08-02T13:19:16.089Z,45.90
2022-08-02T13:22:01.137Z,46.10
2022-08-02T13:24:40.228Z,45.90
2022-08-02T13:27:21.630Z,47.00
2022-08-02T13:29:50.747Z,46.80
2022-08-02T13:32:18.951Z,46.00
2022-08-02T13:34:48.220Z,46.80
2022-08-02T13:37:16.764Z,46.20
2022-08-02T13:40:00.047Z,46.70
2022-08-02T13:42:28.146Z,46.40
2022-08-02T13:44:55.882Z,46.10
2022-08-02T13:47:26.668Z,46.40
2022-08-02T13:50:06.470Z,46.50
2022-08-02T13:52:34.802Z,46.00
2022-08-02T13:55:02.586Z,45.40
2022-08-02T13:57:30.379Z,46.80
2022-08-02T14:00:00.854Z,46.50
2022-08-02T14:02:28.841Z,46.70
2022-08-02T14:04:56.883Z,46.70
2022-08-02T14:07:26.046Z,47.20
2022-08-02T14:09:53.875Z,46.30
2022-08-02T14:12:21.657Z,46.30
2022-08-02T14:14:49.458Z,47.90
2022-08-02T14:17:18.657Z,47.10
2022-08-02T14:19:46.490Z,47.50
2022-08-02T14:22:14.338Z,47.30
2022-08-02T14:24:43.637Z,46.60
2022-08-02T14:27:11.574Z,47.50
2022-08-02T14:29:39.278Z,48.20
2022-08-02T14:32:07.537Z,48.00
2022-08-02T14:34:35.231Z,47.70
2022-08-02T14:37:03.161Z,47.10
2022-08-02T14:39:42.540Z,47.90
2022-08-02T14:42:13.250Z,47.70
2022-08-02T14:44:41.280Z,47.80
2022-08-02T14:47:09.623Z,47.90
2022-08-02T14:49:41.529Z,47.60
2022-08-02T14:52:13.024Z,47.80
2022-08-02T14:54:42.950Z,47.70
2022-08-02T14:57:12.023Z,47.30
2022-08-02T14:59:42.432Z,46.90
2022-08-02T15:02:13.217Z,47.60
2022-08-02T15:04:43.267Z,47.80
2022-08-02T15:07:12.187Z,47.70
2022-08-02T15:09:40.178Z,47.50
2022-08-02T15:12:08.863Z,47.80
2022-08-02T15:14:38.282Z,48.60
2022-08-02T15:17:06.112Z,47.80
2022-08-02T15:19:56.731Z,48.20
2022-08-02T15:22:22.174Z,48.90
2022-08-02T15:24:50.849Z,48.80
2022-08-02T15:27:18.991Z,47.90
2022-08-02T15:29:48.087Z,48.10
2022-08-02T15:32:18.731Z,48.20
2022-08-02T15:34:47.126Z,48.80
2022-08-02T15:37:14.918Z,48.80
2022-08-02T15:39:44.358Z,48.70
2022-08-02T15:42:12.777Z,48.40
2022-08-02T15:44:40.822Z,48.10
2022-08-02T15:47:09.931Z,48.00
2022-08-02T15:49:41.261Z,47.80
2022-08-02T15:52:10.884Z,48.80
2022-08-02T15:54:38.956Z,48.20
2022-08-02T15:57:07.009Z,48.50
2022-08-02T15:59:34.722Z,47.90
2022-08-02T16:02:03.027Z,48.00
2022-08-02T16:04:32.899Z,48.10
2022-08-02T16:07:01.619Z,48.20
2022-08-02T16:09:29.614Z,47.80
2022-08-02T16:11:57.629Z,48.40
2022-08-02T16:14:25.347Z,47.80
2022-08-02T16:16:53.096Z,47.90
2022-08-02T16:19:46.317Z,48.50
2022-08-02T16:22:11.681Z,47.60
2022-08-02T16:24:39.725Z,47.80
2022-08-02T16:27:09.219Z,47.60
2022-08-02T16:29:37.248Z,47.30
2022-08-02T16:32:05.765Z,47.40
2022-08-02T16:34:50.716Z,46.60
2022-08-02T16:37:22.536Z,46.70
2022-08-02T16:39:50.279Z,46.90
2022-08-02T16:42:24.974Z,46.90
2022-08-02T16:44:54.907Z,47.10
2022-08-02T16:47:43.535Z,46.90
2022-08-02T16:50:11.101Z,47.70
2022-08-02T16:52:40.563Z,47.50
2022-08-02T16:55:10.984Z,47.40
2022-08-02T16:57:43.370Z,47.10
2022-08-02T17:00:15.513Z,46.70
2022-08-02T17:02:44.108Z,46.90
2022-08-02T17:05:14.974Z,47.20
2022-08-02T17:08:07.264Z,46.70
2022-08-02T17:10:33.432Z,47.70
2022-08-02T17:13:11.298Z,47.60
2022-08-02T17:16:16.209Z,47.30
2022-08-02T17:18:28.788Z,47.40
2022-08-02T17:20:57.759Z,47.80
2022-08-02T17:24:04.319Z,47.10
2022-08-02T17:26:14.619Z,47.50
2022-08-02T17:29:14.589Z,47.20
2022-08-02T17:31:42.459Z,47.50
2022-08-02T17:34:12.247Z,47.50
2022-08-02T17:36:40.093Z,47.40
2022-08-02T17:39:09.123Z,47.50
2022-08-02T17:41:48.911Z,47.50
2022-08-02T17:44:37.401Z,47.60
2022-08-02T17:47:06.834Z,47.30
2022-08-02T17:49:38.277Z,48.00
2022-08-02T17:52:15.440Z,47.80
2022-08-02T17:55:03.327Z,48.90
2022-08-02T17:57:55.968Z,48.70
2022-08-02T18:00:19.955Z,49.90
2022-08-02T18:02:52.947Z,51.00
2022-08-02T18:05:35.429Z,50.10
2022-08-02T18:08:08.487Z,50.40
2022-08-02T18:10:39.106Z,50.40
2022-08-02T18:13:06.899Z,50.20
2022-08-02T18:15:35.538Z,51.00
2022-08-02T18:18:03.874Z,51.90
2022-08-02T18:20:31.851Z,51.80
2022-08-02T18:23:00.208Z,52.80
2022-08-02T18:25:36.884Z,53.40
2022-08-02T18:28:13.259Z,53.50
2022-08-02T18:30:41.078Z,53.50
2022-08-02T18:34:00.205Z,54.00
2022-08-02T18:35:57.011Z,54.80
2022-08-02T18:38:26.862Z,55.50
2022-08-02T18:40:55.692Z,55.90
2022-08-02T18:43:25.509Z,56.30
2022-08-02T18:46:06.663Z,56.60
2022-08-02T18:48:46.952Z,57.70
2022-08-02T18:51:18.933Z,58.20
2022-08-02T18:53:52.174Z,57.40
2022-08-02T18:56:24.646Z,58.20
2022-08-02T18:58:55.564Z,58.90
2022-08-02T19:01:33.970Z,59.20
2022-08-02T19:04:11.764Z,59.60
2022-08-02T19:06:39.682Z,59.80
2022-08-02T19:09:12.934Z,60.10
2022-08-02T19:11:48.028Z,60.10
2022-08-02T19:14:27.929Z,60.60
2022-08-02T19:16:59.405Z,60.70
2022-08-02T19:19:28.670Z,61.80
2022-08-02T19:22:17.353Z,61.90
2022-08-02T19:24:46.101Z,62.70
2022-08-02T19:27:14.837Z,63.00
2022-08-02T19:29:51.060Z,62.90
2022-08-02T19:32:40.113Z,62.70
2022-08-02T19:35:19.387Z,62.50
2022-08-02T19:37:59.600Z,63.80
2022-08-02T19:40:29.020Z,63.90
2022-08-02T19:44:25.305Z,63.90
2022-08-02T19:45:49.903Z,64.00
2022-08-02T19:48:24.275Z,64.10
2022-08-02T19:50:56.127Z,64.80
2022-08-02T19:53:28.910Z,64.40
2022-08-02T19:56:21.107Z,65.00
2022-08-02T19:58:50.248Z,65.00
2022-08-02T20:01:36.729Z,65.80
2022-08-02T20:04:06.488Z,66.20
2022-08-02T20:06:34.233Z,66.10
2022-08-02T20:09:02.271Z,66.50
2022-08-02T20:11:35.037Z,66.70
2022-08-02T20:14:04.991Z,66.70
2022-08-02T20:16:35.224Z,67.40
2022-08-02T20:19:03.488Z,67.90
2022-08-02T20:21:36.622Z,68.00
2022-08-02T20:24:06.506Z,68.10
2022-08-02T20:26:35.422Z,67.60
2022-08-02T20:29:03.992Z,67.90
2022-08-02T20:31:31.875Z,68.30
2022-08-02T20:34:01.271Z,68.00
2022-08-02T20:36:29.419Z,68.00
2022-08-02T20:38:57.146Z,68.30
2022-08-02T20:41:37.070Z,68.00
2022-08-02T20:44:16.270Z,67.40
2022-08-02T20:46:59.229Z,67.70
2022-08-02T20:49:41.182Z,68.00
2022-08-02T20:52:23.002Z,67.40
2022-08-02T20:54:53.645Z,66.90
2022-08-02T20:57:48.958Z,66.70
2022-08-02T21:00:10.359Z,66.20
2022-08-02T21:02:38.210Z,66.50
2022-08-02T21:05:17.531Z,67.30
2022-08-02T21:07:53.278Z,67.50
2022-08-02T21:10:22.512Z,67.60
2022-08-02T21:12:51.859Z,67.30
2022-08-02T21:15:20.896Z,67.20
2022-08-02T21:17:52.781Z,67.00
2022-08-02T21:20:29.313Z,67.20
2022-08-02T21:22:58.042Z,67.60
2022-08-02T21:25:42.668Z,67.70
2022-08-02T21:28:17.466Z,67.50
2022-08-02T21:30:45.991Z,67.70
2022-08-02T21:33:23.251Z,67.70
2022-08-02T21:35:52.988Z,68.30
2022-08-02T21:38:35.240Z,69.10
2022-08-02T21:41:05.938Z,69.50
2022-08-02T21:43:39.154Z,68.50
2022-08-02T21:46:06.957Z,68.30
2022-08-02T21:48:37.322Z,68.40
2022-08-02T21:51:06.380Z,68.40
2022-08-02T21:53:42.757Z,69.00
2022-08-02T21:56:11.357Z,68.90
2022-08-02T21:58:39.269Z,69.60
2022-08-02T22:01:07.057Z,70.10
2022-08-02T22:03:34.839Z,70.50
2022-08-02T22:06:04.683Z,70.60
2022-08-02T22:08:34.042Z,70.40
2022-08-02T22:11:03.810Z,70.00
2022-08-02T22:13:38.893Z,69.40
2022-08-02T22:16:15.293Z,69.70
2022-08-02T22:18:52.584Z,69.90
2022-08-02T22:21:22.833Z,69.20
2022-08-02T22:23:52.669Z,69.10
2022-08-02T22:26:21.219Z,69.90
2022-08-02T22:28:50.488Z,70.00
2022-08-02T22:31:19.715Z,70.10
2022-08-02T22:34:26.994Z,70.50
2022-08-02T22:36:54.225Z,70.20
2022-08-02T22:39:23.330Z,70.50
2022-08-02T22:42:05.211Z,70.70
2022-08-02T22:44:34.617Z,71.10
2022-08-02T22:47:06.905Z,72.10
2022-08-02T22:49:38.212Z,72.20
2022-08-02T22:52:14.228Z,72.60
2022-08-02T22:54:43.632Z,73.20
2022-08-02T22:57:11.745Z,72.60
2022-08-02T22:59:40.762Z,72.90
2022-08-02T23:02:08.958Z,72.50
2022-08-02T23:04:37.344Z,72.50
2022-08-02T23:07:05.223Z,72.50
2022-08-02T23:09:33.195Z,72.40
2022-08-02T23:12:02.349Z,72.20
2022-08-02T23:14:30.077Z,72.00
2022-08-02T23:17:11.889Z,71.90
2022-08-02T23:19:53.656Z,71.70
2022-08-02T23:22:24.275Z,71.90
2022-08-02T23:24:58.260Z,72.40
2022-08-02T23:27:27.278Z,72.00
2022-08-02T23:29:55.012Z,72.10
2022-08-02T23:32:25.705Z,72.20
2022-08-02T23:34:53.840Z,72.40
2022-08-02T23:37:22.440Z,72.80
2022-08-02T23:39:50.912Z,72.70
2022-08-02T23:42:18.893Z,72.90
2022-08-02T23:44:48.134Z,72.50
2022-08-02T23:47:16.691Z,72.80
2022-08-02T23:49:44.485Z,72.80
2022-08-02T23:52:12.653Z,72.90
2022-08-02T23:54:40.477Z,72.80
2022-08-02T23:57:20.187Z,73.00
2022-08-02T23:59:51.798Z,72.80
